Time;durP1;ratioP1;P1;durP2;ratioP2;P2;SDS_P1;SDS_P2;PMS_P1;PMS_P2;Temp;Humidity;BMP_temperature;BMP_pressure;BME280_temperature;BME280_humidity;BME280_pressure;Samples;Min_cycle;Max_cycle;Signal;HPM_P1;HPM_P2
2023/10/01 00:01:40;;;;;;;8.18;4.82;;;18.50;99.90;;;;;;5012039;28;20392;-75
2023/10/01 00:04:07;;;;;;;8.80;4.30;;;18.50;99.90;;;;;;5010090;28;20067;-79
2023/10/01 00:06:36;;;;;;;11.02;4.70;;;18.50;99.90;;;;;;5010661;28;20045;-76
2023/10/01 00:09:05;;;;;;;11.90;4.45;;;18.50;99.90;;;;;;5035367;28;20681;-76
2023/10/01 00:11:38;;;;;;;12.38;4.53;;;18.50;99.90;;;;;;5011050;28;20485;-75
2023/10/01 00:14:08;;;;;;;8.73;4.55;;;18.50;99.90;;;;;;5011755;28;20108;-73
2023/10/01 00:16:37;;;;;;;11.82;4.80;;;18.50;99.90;;;;;;5009073;28;20033;-76
2023/10/01 00:19:07;;;;;;;9.93;5.40;;;18.50;99.90;;;;;;4995634;28;20504;-78
2023/10/01 00:21:33;;;;;;;9.02;5.05;;;18.60;99.90;;;;;;5010326;28;20037;-73
2023/10/01 00:23:59;;;;;;;8.70;4.80;;;18.50;99.90;;;;;;4995375;28;20709;-75
2023/10/01 00:26:25;;;;;;;11.13;5.32;;;18.50;99.90;;;;;;4992467;28;20037;-74
2023/10/01 00:28:51;;;;;;;12.77;5.60;;;18.60;99.90;;;;;;5008980;28;20170;-75
2023/10/01 00:31:17;;;;;;;11.63;5.28;;;18.60;99.90;;;;;;4976284;28;20037;-79
2023/10/01 00:33:45;;;;;;;12.38;5.60;;;18.50;99.90;;;;;;5011348;28;20056;-78
2023/10/01 00:36:11;;;;;;;8.70;5.20;;;18.60;99.90;;;;;;5008961;28;20069;-71
2023/10/01 00:38:37;;;;;;;12.50;6.05;;;18.60;99.90;;;;;;4991935;28;20393;-74
2023/10/01 00:41:04;;;;;;;12.65;5.93;;;18.50;99.90;;;;;;4995632;28;20045;-78
2023/10/01 00:43:31;;;;;;;10.63;5.57;;;18.50;99.90;;;;;;5010995;28;20049;-76
2023/10/01 00:45:57;;;;;;;12.57;6.10;;;18.50;99.90;;;;;;5011144;28;20132;-77
2023/10/01 00:48:23;;;;;;;12.45;6.30;;;18.50;99.90;;;;;;5008196;28;20121;-77
2023/10/01 00:50:54;;;;;;;12.23;6.90;;;18.60;99.90;;;;;;5011650;28;20090;-76
2023/10/01 00:53:21;;;;;;;11.25;7.13;;;18.50;99.90;;;;;;5010762;28;20662;-74
2023/10/01 00:55:48;;;;;;;14.77;6.63;;;18.50;99.90;;;;;;4995423;28;20041;-73
2023/10/01 00:58:15;;;;;;;15.30;7.88;;;18.50;99.90;;;;;;5008239;28;20049;-74
2023/10/01 01:00:43;;;;;;;13.65;8.07;;;18.50;99.90;;;;;;5002372;28;20041;-73
2023/10/01 01:03:09;;;;;;;11.55;6.85;;;18.50;99.90;;;;;;5023402;28;20042;-74
2023/10/01 01:05:37;;;;;;;13.35;8.05;;;18.50;99.90;;;;;;5001643;28;20037;-74
2023/10/01 01:08:21;;;;;;;14.32;7.30;;;18.50;99.90;;;;;;4994305;28;20456;-74
2023/10/01 01:10:53;;;;;;;11.50;6.57;;;18.50;99.90;;;;;;4996689;28;20056;-74
2023/10/01 01:13:19;;;;;;;14.25;7.20;;;18.50;99.90;;;;;;4996128;28;20111;-76
2023/10/01 01:15:46;;;;;;;13.00;7.35;;;18.50;99.90;;;;;;4996543;28;20044;-73
2023/10/01 01:18:14;;;;;;;13.48;7.18;;;18.50;99.90;;;;;;5002386;28;20041;-74
2023/10/01 01:20:45;;;;;;;12.13;6.38;;;18.50;99.90;;;;;;5019222;28;20537;-76
2023/10/01 01:23:18;;;;;;;10.43;6.50;;;18.50;99.90;;;;;;5001385;28;20046;-74
2023/10/01 01:25:45;;;;;;;16.02;7.90;;;18.50;99.90;;;;;;5017406;28;20682;-74
2023/10/01 01:28:15;;;;;;;14.90;6.38;;;18.50;99.90;;;;;;4998367;28;20042;-75
2023/10/01 01:30:47;;;;;;;12.13;7.40;;;18.50;99.90;;;;;;5010210;28;20432;-77
2023/10/01 01:33:13;;;;;;;15.80;7.65;;;18.50;99.90;;;;;;5015536;28;20073;-76
2023/10/01 01:35:39;;;;;;;15.48;7.57;;;18.50;99.90;;;;;;5021760;28;20076;-77
2023/10/01 01:38:07;;;;;;;13.95;8.10;;;18.50;99.90;;;;;;5003737;28;20071;-74
2023/10/01 01:40:40;;;;;;;14.95;8.50;;;18.40;99.90;;;;;;4997971;28;20037;-74
2023/10/01 01:43:15;;;;;;;14.38;8.13;;;18.50;99.90;;;;;;4998167;28;20085;-75
2023/10/01 01:45:44;;;;;;;17.02;9.60;;;18.50;99.90;;;;;;5014101;28;20045;-77
2023/10/01 01:48:26;;;;;;;14.13;8.18;;;18.50;99.90;;;;;;5010949;28;20041;-74
2023/10/01 01:50:54;;;;;;;14.40;8.55;;;18.40;99.90;;;;;;5020228;28;20044;-75
2023/10/01 01:53:21;;;;;;;13.23;8.35;;;18.50;99.90;;;;;;4997555;28;20036;-80
2023/10/01 01:55:50;;;;;;;14.25;7.97;;;18.40;99.90;;;;;;4997666;28;20033;-74
2023/10/01 01:58:23;;;;;;;16.55;8.10;;;18.40;99.90;;;;;;5011134;28;20041;-73
2023/10/01 02:01:08;;;;;;;15.32;7.93;;;18.40;99.90;;;;;;4993962;28;20041;-75
2023/10/01 02:03:37;;;;;;;17.63;8.25;;;18.50;99.90;;;;;;5010021;28;20048;-74
2023/10/01 02:06:07;;;;;;;14.10;8.88;;;18.50;99.90;;;;;;4996727;28;20041;-72
2023/10/01 02:08:53;;;;;;;16.92;8.65;;;18.50;99.90;;;;;;5012712;28;20398;-75
2023/10/01 02:11:20;;;;;;;14.48;8.57;;;18.50;99.90;;;;;;5036289;28;20513;-76
2023/10/01 02:13:50;;;;;;;15.25;9.02;;;18.50;99.90;;;;;;5013028;28;20036;-74
2023/10/01 02:16:34;;;;;;;13.95;8.18;;;18.40;99.90;;;;;;4980173;28;20053;-74
2023/10/01 02:19:14;;;;;;;18.63;9.35;;;18.40;99.90;;;;;;5011835;28;20038;-75
2023/10/01 02:21:47;;;;;;;12.85;8.55;;;18.50;99.90;;;;;;5036011;28;20064;-72
2023/10/01 02:24:37;;;;;;;13.80;8.48;;;18.50;99.90;;;;;;4981757;28;20052;-77
2023/10/01 02:27:04;;;;;;;15.43;8.32;;;18.50;99.90;;;;;;4999089;28;20048;-75
2023/10/01 02:29:45;;;;;;;13.48;8.50;;;18.50;99.90;;;;;;5011529;28;20034;-72
2023/10/01 02:32:12;;;;;;;14.73;8.95;;;18.50;99.90;;;;;;5012680;28;20037;-76
2023/10/01 02:34:38;;;;;;;17.30;9.20;;;18.50;99.90;;;;;;4995968;28;20087;-75
2023/10/01 02:37:05;;;;;;;16.50;9.68;;;18.40;99.90;;;;;;4980330;28;20041;-73
2023/10/01 02:39:31;;;;;;;14.73;10.43;;;18.50;99.90;;;;;;4979915;28;20037;-77
2023/10/01 02:44:34;;;;;;;13.43;9.07;;;18.50;99.90;;;;;;5011491;28;20127;-80
2023/10/01 02:47:09;;;;;;;13.18;9.23;;;18.50;99.90;;;;;;5013273;28;20045;-75
2023/10/01 02:49:47;;;;;;;14.77;9.95;;;18.40;99.90;;;;;;4996403;28;20113;-72
2023/10/01 02:52:14;;;;;;;14.60;10.05;;;18.50;99.90;;;;;;5012498;28;20507;-75
2023/10/01 02:54:40;;;;;;;13.02;10.18;;;18.50;99.90;;;;;;4995218;28;20038;-74
2023/10/01 02:57:12;;;;;;;15.13;9.40;;;18.50;99.90;;;;;;5013240;28;20101;-76
2023/10/01 03:00:09;;;;;;;13.27;9.55;;;18.40;99.90;;;;;;5012010;28;20053;-77
2023/10/01 03:02:32;;;;;;;19.40;10.40;;;18.50;99.90;;;;;;5006941;28;20045;-76
2023/10/01 03:05:16;;;;;;;12.02;8.45;;;18.50;99.90;;;;;;5013110;28;20596;-76
2023/10/01 03:07:45;;;;;;;16.13;10.48;;;18.50;99.90;;;;;;5034675;28;20413;-74
2023/10/01 03:10:27;;;;;;;19.85;9.90;;;18.60;99.90;;;;;;5008494;28;20721;-76
2023/10/01 03:13:14;;;;;;;14.30;9.65;;;18.50;99.90;;;;;;5037951;28;20069;-76
2023/10/01 03:15:43;;;;;;;16.58;9.35;;;18.60;99.90;;;;;;5011790;28;20087;-74
2023/10/01 03:18:18;;;;;;;18.60;10.35;;;18.60;99.90;;;;;;5012649;28;20091;-76
2023/10/01 03:23:25;;;;;;;16.10;10.25;;;18.60;99.90;;;;;;5011501;28;20129;-79
2023/10/01 03:26:08;;;;;;;14.63;10.80;;;18.60;99.90;;;;;;5011516;28;20038;-77
2023/10/01 03:31:24;;;;;;;14.63;9.88;;;18.60;99.90;;;;;;5008639;28;20551;-75
2023/10/01 03:33:58;;;;;;;15.88;9.50;;;18.60;99.90;;;;;;4994781;28;20037;-72
2023/10/01 03:36:25;;;;;;;13.73;9.68;;;18.60;99.90;;;;;;5033632;28;20034;-75
2023/10/01 03:47:09;;;;;;;13.35;10.10;;;18.60;99.90;;;;;;4997001;28;20045;-74
2023/10/01 03:49:43;;;;;;;13.55;9.68;;;18.60;99.90;;;;;;4994990;28;20037;-72
2023/10/01 03:52:09;;;;;;;15.63;10.02;;;18.60;99.90;;;;;;5034803;28;20363;-77
2023/10/01 03:57:19;;;;;;;15.60;9.55;;;18.60;99.90;;;;;;5009839;28;20060;-74
2023/10/01 03:59:52;;;;;;;13.65;10.10;;;18.60;99.90;;;;;;5010768;28;20033;-75
2023/10/01 04:05:21;;;;;;;16.58;9.85;;;18.60;99.90;;;;;;5010710;28;20045;-77
2023/10/01 04:07:48;;;;;;;12.32;10.15;;;18.60;99.90;;;;;;5010821;28;20041;-74
2023/10/01 04:10:19;;;;;;;14.95;9.60;;;18.60;99.90;;;;;;4994698;28;20046;-74
2023/10/01 04:12:49;;;;;;;15.23;10.40;;;18.70;99.90;;;;;;5010013;28;20041;-74
2023/10/01 04:15:31;;;;;;;14.55;9.30;;;18.60;99.90;;;;;;4992956;28;20111;-75
2023/10/01 04:20:47;;;;;;;19.35;9.57;;;18.60;99.90;;;;;;5033507;28;20128;-74
2023/10/01 04:23:30;;;;;;;13.50;9.25;;;18.70;99.90;;;;;;5010997;28;20041;-75
2023/10/01 04:26:04;;;;;;;15.23;9.82;;;18.70;99.90;;;;;;4994572;28;20073;-75
2023/10/01 04:28:31;;;;;;;15.65;9.98;;;18.70;99.90;;;;;;4992965;28;20029;-79
2023/10/01 04:30:57;;;;;;;14.20;10.32;;;18.70;99.90;;;;;;5011182;28;20038;-75
2023/10/01 04:33:23;;;;;;;17.15;10.23;;;18.70;99.90;;;;;;5007414;28;20059;-74
2023/10/01 04:35:52;;;;;;;17.08;10.50;;;18.70;99.90;;;;;;5011049;28;20037;-74
2023/10/01 04:38:22;;;;;;;17.80;9.98;;;18.70;99.90;;;;;;4994529;28;20098;-72
2023/10/01 04:40:49;;;;;;;19.15;11.70;;;18.70;99.90;;;;;;4975186;28;20045;-78
2023/10/01 04:43:20;;;;;;;22.70;10.32;;;18.70;99.90;;;;;;5009988;28;20033;-77
2023/10/01 04:45:47;;;;;;;15.43;10.25;;;18.70;99.90;;;;;;5009981;28;20053;-74
2023/10/01 04:48:22;;;;;;;13.55;9.27;;;18.70;99.90;;;;;;5009524;28;20646;-74
2023/10/01 04:50:49;;;;;;;;;;;18.70;99.90;;;;;;4993254;28;20073;-75
2023/10/01 04:53:20;;;;;;;17.23;9.88;;;18.70;99.90;;;;;;5006823;28;19925;-75
2023/10/01 04:55:57;;;;;;;19.42;9.80;;;18.70;99.90;;;;;;4993635;28;20120;-78
2023/10/01 04:58:24;;;;;;;16.30;10.02;;;18.70;99.90;;;;;;5010286;28;20060;-75
2023/10/01 05:00:50;;;;;;;14.65;10.00;;;18.60;99.90;;;;;;5010109;28;20045;-75
2023/10/01 05:03:16;;;;;;;15.80;9.73;;;18.70;99.90;;;;;;5009533;28;20049;-74
2023/10/01 05:05:42;;;;;;;14.73;10.50;;;18.70;99.90;;;;;;5023746;28;20040;-75
2023/10/01 05:08:12;;;;;;;13.90;9.98;;;18.60;99.90;;;;;;5013137;28;20483;-76
2023/10/01 05:10:51;;;;;;;18.85;11.55;;;18.60;99.90;;;;;;5014158;28;20057;-73
2023/10/01 05:13:22;;;;;;;18.13;10.13;;;18.50;99.90;;;;;;4998420;28;20041;-77
2023/10/01 05:15:57;;;;;;;15.50;10.93;;;18.50;99.90;;;;;;4994873;28;20036;-74
2023/10/01 05:18:27;;;;;;;13.15;9.40;;;18.50;99.90;;;;;;4982691;28;20036;-75
2023/10/01 05:20:58;;;;;;;14.80;8.93;;;18.50;99.90;;;;;;4998208;28;20045;-77
2023/10/01 05:23:27;;;;;;;16.35;10.77;;;18.50;99.90;;;;;;5014818;28;20039;-78
2023/10/01 05:25:56;;;;;;;15.98;9.65;;;18.50;99.90;;;;;;4980622;28;20071;-76
2023/10/01 05:28:31;;;;;;;16.88;9.77;;;18.50;99.90;;;;;;4982276;28;20029;-73
2023/10/01 05:31:05;;;;;;;17.88;10.95;;;18.50;99.90;;;;;;4983373;28;20037;-76
2023/10/01 05:33:35;;;;;;;13.90;10.52;;;18.50;99.90;;;;;;4997990;28;20824;-81
2023/10/01 05:36:04;;;;;;;15.48;10.52;;;18.60;99.90;;;;;;5012100;28;20042;-76
2023/10/01 05:38:35;;;;;;;16.95;9.82;;;18.50;99.90;;;;;;4998010;28;20069;-74
2023/10/01 05:41:03;;;;;;;13.98;10.80;;;18.50;99.90;;;;;;5014277;28;20040;-78
2023/10/01 05:43:43;;;;;;;13.80;9.93;;;18.50;99.90;;;;;;4998048;28;20359;-76
2023/10/01 05:46:09;;;;;;;18.23;10.63;;;18.50;99.90;;;;;;5013492;28;20076;-75
2023/10/01 05:48:43;;;;;;;14.88;9.60;;;18.40;99.90;;;;;;5013541;28;20103;-76
2023/10/01 05:51:15;;;;;;;16.85;9.60;;;18.40;99.90;;;;;;5019434;28;20046;-77
2023/10/01 05:53:44;;;;;;;14.13;10.32;;;18.40;99.90;;;;;;4981374;28;20067;-75
2023/10/01 05:56:11;;;;;;;16.27;10.10;;;18.40;99.90;;;;;;5010559;28;20127;-75
2023/10/01 05:58:44;;;;;;;13.68;9.93;;;18.50;99.90;;;;;;4980939;28;20075;-75
2023/10/01 06:01:14;;;;;;;13.60;8.75;;;18.50;99.90;;;;;;5035808;28;20041;-75
2023/10/01 06:03:44;;;;;;;14.80;10.07;;;18.40;99.90;;;;;;4996549;28;20037;-78
2023/10/01 06:06:14;;;;;;;13.38;9.25;;;18.40;99.90;;;;;;5011694;28;20052;-78
2023/10/01 06:08:49;;;;;;;15.85;10.50;;;18.40;99.90;;;;;;5012141;28;20052;-78
2023/10/01 06:11:17;;;;;;;16.42;9.93;;;18.30;99.90;;;;;;4995419;28;20084;-74
2023/10/01 06:13:51;;;;;;;17.90;10.45;;;18.40;99.90;;;;;;5011937;28;20561;-78
2023/10/01 06:16:25;;;;;;;14.25;9.77;;;18.30;99.90;;;;;;5014656;28;20405;-75
2023/10/01 06:18:58;;;;;;;15.63;10.73;;;18.40;99.90;;;;;;5009367;28;20045;-77
2023/10/01 06:21:31;;;;;;;19.27;11.10;;;18.40;99.90;;;;;;5011228;28;20053;-78
2023/10/01 06:24:04;;;;;;;16.15;9.77;;;18.40;99.90;;;;;;5011622;28;20037;-76
2023/10/01 06:26:42;;;;;;;17.83;10.38;;;18.40;99.90;;;;;;4994718;28;20393;-75
2023/10/01 06:29:13;;;;;;;15.73;10.30;;;18.40;99.90;;;;;;5011939;28;20363;-74
2023/10/01 06:34:31;;;;;;;14.90;9.60;;;18.50;99.90;;;;;;5008991;28;20060;-76
2023/10/01 06:36:59;;;;;;;16.10;9.40;;;18.50;99.90;;;;;;4993833;28;20041;-77
2023/10/01 06:39:30;;;;;;;15.18;10.10;;;18.60;99.90;;;;;;5038156;28;20034;-76
2023/10/01 06:42:18;;;;;;;17.35;10.10;;;18.50;99.90;;;;;;5009670;28;20037;-78
2023/10/01 06:44:48;;;;;;;16.63;9.32;;;18.60;99.90;;;;;;5036390;28;20487;-77
2023/10/01 06:47:15;;;;;;;18.55;10.07;;;18.60;99.90;;;;;;5031243;28;20041;-74
2023/10/01 06:49:57;;;;;;;16.42;10.20;;;18.60;99.90;;;;;;5010991;28;20044;-76
2023/10/01 06:52:27;;;;;;;13.75;9.38;;;18.60;99.90;;;;;;5011903;28;20056;-77
2023/10/01 06:54:57;;;;;;;14.80;9.35;;;18.60;99.90;;;;;;5024153;28;20037;-75
2023/10/01 06:57:32;;;;;;;14.43;9.23;;;18.70;99.90;;;;;;4996442;28;20440;-75
2023/10/01 06:59:59;;;;;;;16.92;10.27;;;18.70;99.90;;;;;;5028851;28;20037;-76
2023/10/01 07:02:26;;;;;;;16.92;10.43;;;18.70;99.90;;;;;;5012588;28;20404;-75
2023/10/01 07:04:56;;;;;;;16.92;10.10;;;18.80;99.90;;;;;;4996054;28;20030;-74
2023/10/01 07:07:27;;;;;;;20.40;11.20;;;18.90;99.90;;;;;;5006143;28;20667;-73
2023/10/01 07:10:00;;;;;;;17.52;10.00;;;19.00;99.90;;;;;;5006965;28;20062;-72
2023/10/01 07:12:26;;;;;;;16.92;10.23;;;18.90;99.90;;;;;;5009551;28;20049;-76
2023/10/01 07:14:52;;;;;;;19.33;9.77;;;19.00;99.90;;;;;;5008098;28;20041;-75
2023/10/01 07:17:23;;;;;;;20.65;9.93;;;19.00;99.90;;;;;;5026468;28;20128;-73
2023/10/01 07:20:35;;;;;;;19.77;10.40;;;19.20;99.90;;;;;;4993538;28;20444;-74
2023/10/01 07:22:38;;;;;;;15.60;8.93;;;19.20;99.90;;;;;;5007816;28;20491;-74
2023/10/01 07:25:04;;;;;;;16.10;10.32;;;19.20;99.90;;;;;;4977969;28;20056;-74
2023/10/01 07:27:30;;;;;;;19.08;10.38;;;19.30;99.90;;;;;;4975412;28;20030;-76
2023/10/01 07:29:57;;;;;;;16.40;10.25;;;19.30;99.90;;;;;;5008977;28;20116;-74
2023/10/01 07:32:24;;;;;;;18.10;10.45;;;19.40;99.90;;;;;;5011260;28;20629;-74
2023/10/01 07:34:59;;;;;;;19.92;10.23;;;19.40;99.90;;;;;;5010669;28;20072;-76
2023/10/01 07:37:29;;;;;;;18.27;9.88;;;19.40;99.90;;;;;;5011118;28;20134;-75
2023/10/01 07:39:59;;;;;;;16.95;9.05;;;19.50;99.90;;;;;;5008444;28;20117;-75
2023/10/01 07:42:28;;;;;;;13.65;8.20;;;19.60;99.90;;;;;;4995088;28;20112;-75
2023/10/01 07:44:56;;;;;;;15.05;9.27;;;19.40;99.90;;;;;;4994539;28;20041;-79
2023/10/01 07:47:28;;;;;;;17.42;9.05;;;19.60;99.90;;;;;;5029139;28;20052;-76
2023/10/01 07:49:58;;;;;;;15.98;9.10;;;19.60;99.90;;;;;;5012536;28;20471;-77
2023/10/01 07:52:24;;;;;;;17.27;9.50;;;19.60;99.90;;;;;;5010172;28;20040;-76
2023/10/01 07:54:50;;;;;;;16.10;9.00;;;19.70;99.90;;;;;;4994176;28;20037;-73
2023/10/01 07:57:28;;;;;;;14.88;9.95;;;19.60;99.90;;;;;;4993907;28;20099;-76
2023/10/01 07:59:59;;;;;;;17.17;8.73;;;19.70;99.90;;;;;;4993237;28;20033;-74
2023/10/01 08:02:28;;;;;;;15.05;8.30;;;19.70;99.90;;;;;;4994650;28;20549;-77
2023/10/01 08:04:57;;;;;;;19.33;7.80;;;19.60;99.90;;;;;;4994309;28;20083;-77
2023/10/01 08:07:43;;;;;;;16.60;8.60;;;19.60;99.90;;;;;;5010763;28;20037;-76
2023/10/01 08:10:18;;;;;;;14.60;7.88;;;19.60;99.90;;;;;;5008060;28;20464;-78
2023/10/01 08:13:05;;;;;;;15.50;9.18;;;19.70;99.90;;;;;;4994689;28;20061;-75
2023/10/01 08:15:32;;;;;;;13.35;7.25;;;19.70;99.90;;;;;;5011872;28;20107;-74
2023/10/01 08:21:00;;;;;;;17.55;8.45;;;19.80;99.90;;;;;;5007386;28;20136;-74
2023/10/01 08:23:31;;;;;;;17.20;7.78;;;19.90;99.90;;;;;;5011200;28;20046;-76
2023/10/01 08:26:43;;;;;;;15.52;7.47;;;19.90;99.90;;;;;;5004785;28;20122;-75
2023/10/01 08:28:55;;;;;;;13.93;7.78;;;19.90;99.90;;;;;;5033585;28;20071;-74
2023/10/01 08:31:43;;;;;;;17.67;7.57;;;19.90;99.90;;;;;;5007891;28;20753;-73
2023/10/01 08:34:22;;;;;;;16.58;8.05;;;19.90;99.90;;;;;;5018303;28;20057;-74
2023/10/01 08:36:49;;;;;;;15.18;7.30;;;20.00;99.90;;;;;;4993497;28;20038;-75
2023/10/01 08:39:35;;;;;;;15.13;7.93;;;20.00;99.90;;;;;;4977872;28;20492;-80
2023/10/01 08:42:08;;;;;;;15.48;7.80;;;20.00;99.90;;;;;;5007411;28;20540;-78
2023/10/01 08:45:04;;;;;;;17.40;7.93;;;20.00;99.90;;;;;;5009707;28;20091;-77
2023/10/01 08:47:37;;;;;;;12.85;7.30;;;20.10;99.90;;;;;;5008922;28;20413;-76
2023/10/01 08:52:56;;;;;;;12.27;8.10;;;20.30;99.90;;;;;;5008611;28;20049;-75
2023/10/01 08:56:04;;;;;;;15.45;8.23;;;20.30;99.90;;;;;;4998432;28;20034;-74
2023/10/01 08:58:28;;;;;;;17.70;7.78;;;20.40;99.90;;;;;;5011383;28;20053;-74
2023/10/01 09:01:15;;;;;;;15.07;7.72;;;20.30;99.90;;;;;;5010569;28;20083;-73
2023/10/01 09:03:47;;;;;;;11.32;7.32;;;20.40;99.90;;;;;;5028240;28;20448;-76
2023/10/01 09:06:30;;;;;;;13.43;7.65;;;20.40;99.90;;;;;;5011921;28;20421;-77
2023/10/01 09:08:59;;;;;;;13.35;6.97;;;20.50;99.90;;;;;;5011329;28;20091;-76
2023/10/01 09:11:43;;;;;;;14.60;7.55;;;20.50;99.90;;;;;;4993937;28;20053;-75
2023/10/01 09:14:15;;;;;;;15.32;7.88;;;20.50;99.90;;;;;;5011391;28;20064;-74
2023/10/01 09:16:45;;;;;;;14.70;7.47;;;20.50;99.90;;;;;;4996169;28;20036;-72
2023/10/01 09:19:31;;;;;;;16.02;7.78;;;20.70;99.90;;;;;;5012767;28;20628;-76
2023/10/01 09:25:25;;;;;;;11.18;7.13;;;21.10;99.90;;;;;;5010032;28;20046;-75
2023/10/01 09:28:03;;;;;;;14.23;7.75;;;21.40;99.90;;;;;;5001619;28;20132;-76
2023/10/01 09:30:33;;;;;;;15.63;7.20;;;21.40;99.90;;;;;;5010865;28;20041;-75
2023/10/01 09:33:14;;;;;;;13.20;6.97;;;21.60;99.90;;;;;;5008230;28;20568;-72
2023/10/01 09:36:03;;;;;;;11.55;6.72;;;21.80;99.90;;;;;;4986917;28;20148;-73
2023/10/01 09:38:29;;;;;;;14.88;6.90;;;21.90;99.90;;;;;;4974737;28;20053;-71
2023/10/01 09:40:59;;;;;;;13.90;6.47;;;22.10;99.90;;;;;;5010024;28;20065;-76
2023/10/01 09:43:29;;;;;;;17.52;6.57;;;22.30;99.90;;;;;;4986221;28;20056;-73
2023/10/01 09:45:57;;;;;;;13.57;6.63;;;22.30;99.90;;;;;;4987255;28;20041;-73
2023/10/01 09:48:30;;;;;;;14.13;6.35;;;22.40;99.90;;;;;;5008942;28;20049;-74
2023/10/01 09:51:20;;;;;;;10.73;6.00;;;22.60;99.90;;;;;;5008983;28;20048;-74
2023/10/01 09:53:48;;;;;;;16.30;7.38;;;22.70;99.90;;;;;;5008462;28;20033;-75
2023/10/01 09:56:31;;;;;;;11.68;5.78;;;22.70;99.90;;;;;;4997215;28;20049;-75
2023/10/01 09:59:07;;;;;;;14.73;6.20;;;22.70;99.90;;;;;;4997097;28;20072;-74
2023/10/01 10:01:38;;;;;;;12.55;5.88;;;22.60;99.90;;;;;;5013575;28;20045;-76
2023/10/01 10:04:20;;;;;;;16.35;6.45;;;22.70;99.90;;;;;;5012110;28;20053;-75
2023/10/01 10:06:59;;;;;;;17.08;6.85;;;22.90;99.90;;;;;;5009181;28;20381;-74
2023/10/01 10:09:27;;;;;;;11.95;6.03;;;23.00;99.90;;;;;;5006672;28;20132;-74
2023/10/01 10:11:53;;;;;;;15.35;6.70;;;23.10;99.90;;;;;;5018866;28;20065;-75
2023/10/01 10:14:28;;;;;;;14.95;6.55;;;23.30;99.90;;;;;;5003438;28;20605;-74
2023/10/01 10:17:18;;;;;;;;;;;23.40;99.90;;;;;;4988409;28;20062;-75
2023/10/01 10:20:24;;;;;;;13.60;6.60;;;23.50;99.90;;;;;;4993764;28;19960;-76
2023/10/01 10:23:13;;;;;;;18.27;6.90;;;23.70;99.90;;;;;;4977098;28;20343;-74
2023/10/01 10:25:40;;;;;;;13.95;6.45;;;23.90;99.90;;;;;;4987891;28;20053;-78
2023/10/01 10:28:06;;;;;;;15.95;6.50;;;24.10;99.90;;;;;;4992866;28;20048;-75
2023/10/01 10:30:32;;;;;;;13.80;6.45;;;24.20;99.90;;;;;;4993477;28;20129;-77
2023/10/01 10:33:29;;;;;;;16.35;6.88;;;24.40;99.90;;;;;;5000039;28;20443;-74
2023/10/01 10:36:36;;;;;;;17.08;7.20;;;24.40;99.90;;;;;;4998403;28;20072;-75
2023/10/01 10:39:06;;;;;;;12.88;6.13;;;24.30;99.90;;;;;;4976116;28;20072;-75
2023/10/01 10:42:27;;;;;;;12.40;6.18;;;24.40;99.90;;;;;;4993325;28;20438;-74
2023/10/01 10:45:19;;;;;;;16.95;6.75;;;24.40;99.90;;;;;;5008578;28;20050;-74
2023/10/01 10:48:03;;;;;;;11.02;6.05;;;24.20;99.90;;;;;;4986150;28;20061;-76
2023/10/01 10:50:48;;;;;;;14.82;6.70;;;24.20;99.90;;;;;;4988160;28;20462;-78
2023/10/01 10:53:21;;;;;;;;;;;23.90;99.90;;;;;;4992097;28;20137;-77
2023/10/01 10:55:53;;;;;;;13.48;7.40;;;23.80;99.90;;;;;;4992034;28;19968;-77
2023/10/01 10:58:20;;;;;;;11.75;5.82;;;23.80;99.90;;;;;;4976513;28;20574;-79
2023/10/01 11:00:47;;;;;;;14.55;6.80;;;23.80;99.90;;;;;;4959698;28;20045;-73
2023/10/01 11:03:12;;;;;;;14.57;6.57;;;23.80;99.90;;;;;;4993058;28;20052;-76
2023/10/01 11:05:49;;;;;;;14.48;6.65;;;23.80;99.90;;;;;;4972643;28;20051;-74
2023/10/01 11:08:28;;;;;;;12.43;6.10;;;23.90;99.90;;;;;;4976348;28;20052;-75
2023/10/01 11:10:55;;;;;;;16.25;7.05;;;24.00;99.90;;;;;;4984900;28;20575;-80
2023/10/01 11:13:45;;;;;;;16.45;6.25;;;24.00;99.90;;;;;;4994976;28;20343;-76
2023/10/01 11:16:19;;;;;;;12.77;6.22;;;24.10;99.90;;;;;;5036369;28;20080;-76
2023/10/01 11:18:47;;;;;;;16.60;6.65;;;24.10;99.90;;;;;;4995990;28;20120;-74
2023/10/01 11:21:31;;;;;;;13.27;6.40;;;24.00;99.90;;;;;;5017919;28;20101;-77
2023/10/01 11:24:00;;;;;;;14.50;6.53;;;24.00;99.90;;;;;;5011440;28;20041;-73
2023/10/01 11:26:27;;;;;;;14.32;6.53;;;24.00;99.90;;;;;;5011981;28;20049;-77
2023/10/01 11:29:11;;;;;;;17.40;6.70;;;24.00;99.90;;;;;;5012120;28;20492;-72
2023/10/01 11:31:38;;;;;;;11.80;6.50;;;23.80;99.90;;;;;;5011884;28;20038;-75
2023/10/01 11:34:21;;;;;;;12.20;6.32;;;24.00;99.90;;;;;;4972648;28;20292;-74
2023/10/01 11:36:56;;;;;;;14.07;6.97;;;24.10;99.90;;;;;;5011647;28;20034;-74
2023/10/01 11:39:49;;;;;;;13.52;6.72;;;24.10;99.90;;;;;;4994779;28;20037;-75
2023/10/01 11:42:35;;;;;;;15.98;6.53;;;24.10;99.90;;;;;;5007036;28;20413;-74
2023/10/01 11:45:28;;;;;;;10.77;5.65;;;24.20;99.90;;;;;;5011536;28;20421;-74
2023/10/01 11:48:19;;;;;;;14.10;6.25;;;24.20;99.90;;;;;;5011783;28;20068;-72
2023/10/01 11:50:50;;;;;;;12.60;6.13;;;24.10;99.90;;;;;;5010807;28;20112;-76
2023/10/01 11:53:28;;;;;;;12.43;6.00;;;24.10;99.90;;;;;;5011236;28;20112;-74
2023/10/01 11:56:01;;;;;;;15.38;6.30;;;24.10;99.90;;;;;;5011708;28;20040;-73
2023/10/01 11:58:28;;;;;;;16.15;6.90;;;24.30;99.90;;;;;;5011247;28;20107;-73
2023/10/01 12:00:59;;;;;;;14.05;6.68;;;24.40;99.90;;;;;;4995156;28;20049;-73
2023/10/01 12:03:26;;;;;;;14.18;6.97;;;24.40;99.90;;;;;;5011501;28;20088;-77
2023/10/01 12:05:56;;;;;;;12.57;6.40;;;24.30;99.90;;;;;;4995211;28;20037;-78
2023/10/01 12:08:35;;;;;;;16.15;6.90;;;24.40;99.90;;;;;;4975873;28;20045;-76
2023/10/01 12:14:04;;;;;;;15.90;6.47;;;24.30;99.90;;;;;;5003543;28;20052;-79
2023/10/01 12:16:30;;;;;;;12.13;6.80;;;24.40;99.90;;;;;;5011022;28;20049;-76
2023/10/01 12:19:22;;;;;;;13.90;6.47;;;24.30;99.90;;;;;;4994689;28;20037;-77
2023/10/01 12:21:45;;;;;;;15.18;6.90;;;24.30;99.90;;;;;;5010878;28;20489;-77
2023/10/01 12:24:14;;;;;;;13.35;6.78;;;24.40;99.90;;;;;;5009849;28;20144;-75
2023/10/01 12:26:42;;;;;;;13.57;6.90;;;24.40;99.90;;;;;;4989003;28;20116;-76
2023/10/01 12:29:13;;;;;;;12.20;6.70;;;24.40;99.90;;;;;;5031779;28;20056;-74
2023/10/01 12:31:45;;;;;;;15.68;6.60;;;24.40;99.90;;;;;;4990267;28;20057;-76
2023/10/01 12:34:11;;;;;;;12.68;6.53;;;24.50;99.90;;;;;;4993608;28;20038;-76
2023/10/01 12:36:47;;;;;;;14.02;6.50;;;24.40;99.90;;;;;;4994493;28;20037;-75
2023/10/01 12:44:34;;;;;;;14.88;6.93;;;24.40;99.90;;;;;;5010317;28;20068;-77
2023/10/01 12:47:07;;;;;;;13.05;6.68;;;24.60;99.90;;;;;;4993946;28;20045;-76
2023/10/01 12:49:36;;;;;;;14.65;6.43;;;24.70;99.90;;;;;;5010881;28;20517;-76
2023/10/01 12:52:08;;;;;;;12.57;6.07;;;24.70;99.90;;;;;;5010141;28;20061;-75
2023/10/01 12:54:37;;;;;;;12.02;6.70;;;24.70;99.90;;;;;;5010785;28;20047;-81
2023/10/01 12:57:09;;;;;;;12.10;6.47;;;24.80;99.90;;;;;;5024155;28;20077;-78
2023/10/01 12:59:44;;;;;;;13.32;6.63;;;24.90;99.90;;;;;;4994302;28;20812;-77
2023/10/01 13:07:42;;;;;;;13.07;6.50;;;24.80;99.90;;;;;;5031885;28;20144;-81
2023/10/01 13:10:10;;;;;;;14.15;6.80;;;24.80;99.90;;;;;;4993343;28;20063;-76
2023/10/01 13:12:39;;;;;;;12.93;6.50;;;24.90;99.90;;;;;;5025344;28;20695;-78
2023/10/01 13:15:15;;;;;;;14.00;6.80;;;24.90;99.90;;;;;;5010338;28;20048;-77
2023/10/01 13:17:56;;;;;;;14.65;7.60;;;25.00;99.90;;;;;;5017192;28;20033;-76
2023/10/01 13:20:22;;;;;;;15.00;6.90;;;25.20;99.90;;;;;;5010021;28;20504;-76
2023/10/01 13:23:06;;;;;;;14.43;7.20;;;25.10;99.90;;;;;;4977691;28;20492;-79
2023/10/01 13:25:39;;;;;;;14.75;7.40;;;25.10;99.90;;;;;;5010488;28;20470;-73
2023/10/01 13:28:05;;;;;;;16.02;7.13;;;25.10;99.90;;;;;;4982348;28;20132;-78
2023/10/01 13:31:03;;;;;;;12.25;6.25;;;25.10;99.90;;;;;;5009700;28;20071;-77
2023/10/01 13:33:20;;;;;;;16.02;7.32;;;25.20;99.90;;;;;;5028292;28;20037;-77
2023/10/01 13:35:50;;;;;;;15.10;6.97;;;25.20;99.90;;;;;;4997293;28;20037;-77
2023/10/01 14:11:03;;;;;;;13.88;7.40;;;25.10;99.90;;;;;;5013301;28;20057;-74
2023/10/01 14:13:29;;;;;;;14.73;7.40;;;25.10;99.90;;;;;;5011358;28;20045;-76
2023/10/01 14:16:12;;;;;;;14.40;6.28;;;25.10;99.90;;;;;;5013321;28;20107;-73
2023/10/01 14:18:44;;;;;;;12.50;6.65;;;25.10;99.90;;;;;;5006651;28;20124;-75
2023/10/01 14:21:12;;;;;;;14.60;6.65;;;25.10;99.90;;;;;;5012071;28;20045;-73
2023/10/01 14:23:44;;;;;;;18.05;7.65;;;25.10;99.90;;;;;;5009247;28;20484;-71
2023/10/01 14:26:10;;;;;;;13.60;7.05;;;25.00;99.90;;;;;;5011883;28;20041;-72
2023/10/01 14:28:37;;;;;;;15.20;7.45;;;25.00;99.90;;;;;;5020695;28;20124;-72